createdAt,value
2019-02-26T00:01:00.482Z,86.90
2019-02-26T00:06:08.442Z,87.60
2019-02-26T00:11:26.705Z,87.40
2019-02-26T00:16:35.534Z,87.40
2019-02-26T00:21:43.023Z,87.20
2019-02-26T00:26:49.435Z,87.00
2019-02-26T00:31:59.367Z,86.90
2019-02-26T00:37:06.161Z,86.90
2019-02-26T00:42:12.010Z,87.30
2019-02-26T00:47:18.057Z,87.20
2019-02-26T00:52:24.543Z,86.40
2019-02-26T00:57:31.679Z,86.10
2019-02-26T01:02:38.110Z,85.90
2019-02-26T01:07:44.882Z,85.40
2019-02-26T01:12:50.403Z,85.10
2019-02-26T01:18:08.952Z,84.90
2019-02-26T01:23:16.464Z,84.60
2019-02-26T01:28:26.506Z,84.30
2019-02-26T01:33:35.796Z,83.90
2019-02-26T01:38:43.797Z,84.70
2019-02-26T01:43:48.189Z,83.70
2019-02-26T01:48:53.056Z,83.60
2019-02-26T01:54:00.777Z,83.30
2019-02-26T01:59:05.830Z,83.10
2019-02-26T02:04:12.788Z,82.80
2019-02-26T02:09:18.709Z,82.80
2019-02-26T02:14:24.006Z,82.80
2019-02-26T02:19:32.610Z,82.50
2019-02-26T02:24:34.030Z,82.70
2019-02-26T02:29:37.506Z,82.60
2019-02-26T02:34:43.031Z,82.70
2019-02-26T02:39:46.972Z,82.70
2019-02-26T02:44:53.533Z,82.80
2019-02-26T02:49:57.820Z,83.00
2019-02-26T02:55:04.396Z,83.00
2019-02-26T03:00:12.631Z,83.20
2019-02-26T03:05:16.610Z,83.30
2019-02-26T03:10:20.051Z,83.40
2019-02-26T03:15:24.609Z,83.50
2019-02-26T03:20:30.828Z,83.60
2019-02-26T03:25:33.577Z,83.80
2019-02-26T03:30:43.610Z,84.00
2019-02-26T03:35:42.890Z,84.10
2019-02-26T03:40:49.313Z,84.90
2019-02-26T03:45:52.733Z,84.30
2019-02-26T03:51:00.714Z,84.40
2019-02-26T03:56:04.268Z,84.60
2019-02-26T04:01:08.433Z,84.80
2019-02-26T04:06:12.258Z,84.90
2019-02-26T04:11:16.840Z,85.10
2019-02-26T04:16:21.070Z,85.20
2019-02-26T04:21:24.620Z,85.20
2019-02-26T04:26:35.069Z,85.40
2019-02-26T04:31:54.659Z,85.70
2019-02-26T04:37:07.199Z,85.90
2019-02-26T04:42:18.218Z,85.90
2019-02-26T04:47:24.210Z,85.30
2019-02-26T04:52:29.573Z,85.90
2019-02-26T04:57:34.671Z,85.60
2019-02-26T05:02:38.041Z,86.10
2019-02-26T05:07:44.292Z,86.30
2019-02-26T05:12:47.700Z,86.10
2019-02-26T05:17:51.046Z,86.00
2019-02-26T05:22:58.473Z,86.40
2019-02-26T05:28:03.743Z,86.50
2019-02-26T05:33:06.995Z,86.80
2019-02-26T05:38:11.394Z,87.30
2019-02-26T05:43:15.941Z,87.60
2019-02-26T05:48:23.023Z,87.80
2019-02-26T05:53:24.409Z,88.10
2019-02-26T05:58:27.782Z,88.20
2019-02-26T06:03:33.668Z,88.30
2019-02-26T06:08:39.327Z,88.90
2019-02-26T06:13:43.634Z,88.60
2019-02-26T06:18:48.849Z,88.30
2019-02-26T06:23:52.498Z,88.20
2019-02-26T06:28:56.887Z,88.30
2019-02-26T06:34:03.558Z,88.10
2019-02-26T06:39:09.708Z,88.80
2019-02-26T06:44:13.053Z,88.10
2019-02-26T06:49:17.821Z,87.20
2019-02-26T06:54:22.683Z,87.00
2019-02-26T06:59:34.959Z,86.50
2019-02-26T07:04:39.578Z,86.00
2019-02-26T07:09:43.885Z,85.30
2019-02-26T07:14:48.414Z,85.20
2019-02-26T07:19:53.829Z,84.50
2019-02-26T07:24:59.450Z,83.70
2019-02-26T07:30:03.120Z,83.30
2019-02-26T07:35:11.063Z,83.60
2019-02-26T07:40:18.576Z,82.50
2019-02-26T07:45:22.411Z,82.50
2019-02-26T07:50:31.179Z,81.60
2019-02-26T07:55:32.822Z,81.00
2019-02-26T08:00:37.698Z,80.80
2019-02-26T08:05:44.016Z,80.40
2019-02-26T08:10:48.857Z,79.70
2019-02-26T08:15:54.967Z,78.80
2019-02-26T08:21:00.747Z,77.30
2019-02-26T08:26:03.371Z,76.10
2019-02-26T08:31:06.803Z,74.30
2019-02-26T08:36:13.505Z,70.10
2019-02-26T08:41:17.512Z,65.30
2019-02-26T08:46:21.048Z,61.10
2019-02-26T08:51:25.316Z,58.70
2019-02-26T08:56:30.936Z,57.10
2019-02-26T09:01:33.728Z,54.70
2019-02-26T09:06:38.939Z,51.50
2019-02-26T09:11:42.318Z,50.60
2019-02-26T09:16:47.656Z,49.20
2019-02-26T09:21:54.285Z,50.60
2019-02-26T09:26:58.299Z,49.50
2019-02-26T09:32:06.709Z,49.40
2019-02-26T09:37:09.230Z,47.50
2019-02-26T09:42:13.497Z,45.70
2019-02-26T09:47:21.272Z,38.40
2019-02-26T09:52:27.217Z,33.80
2019-02-26T09:57:29.386Z,30.30
2019-02-26T10:02:33.855Z,29.60
2019-02-26T10:07:38.739Z,26.10
2019-02-26T10:12:42.636Z,24.50
2019-02-26T10:17:47.388Z,27.70
2019-02-26T10:22:52.617Z,31.60
2019-02-26T10:27:55.942Z,32.10
2019-02-26T10:33:02.196Z,33.00
2019-02-26T10:38:06.235Z,32.80
2019-02-26T10:43:09.571Z,34.40
2019-02-26T10:48:13.798Z,33.10
2019-02-26T10:53:20.385Z,33.70
2019-02-26T10:58:24.755Z,36.30
2019-02-26T11:03:29.828Z,36.60
2019-02-26T11:08:35.100Z,35.20
2019-02-26T11:13:40.726Z,34.40
2019-02-26T11:18:45.048Z,34.90
2019-02-26T11:23:48.867Z,33.80
2019-02-26T11:28:52.262Z,33.00
2019-02-26T11:33:57.307Z,31.60
2019-02-26T11:39:02.245Z,32.60
2019-02-26T11:44:09.990Z,33.60
2019-02-26T11:49:11.848Z,31.70
2019-02-26T11:54:18.202Z,30.90
2019-02-26T11:59:21.575Z,32.00
2019-02-26T12:04:24.986Z,29.80
2019-02-26T12:09:32.408Z,31.00
2019-02-26T12:14:37.384Z,30.00
2019-02-26T12:19:39.837Z,30.00
2019-02-26T12:24:44.442Z,28.20
2019-02-26T12:29:48.410Z,27.50
2019-02-26T12:34:52.795Z,25.50
2019-02-26T12:39:57.877Z,25.00
2019-02-26T12:45:06.771Z,26.00
2019-02-26T12:50:16.870Z,24.90
2019-02-26T12:55:22.320Z,28.10
2019-02-26T13:00:26.267Z,31.70
2019-02-26T13:05:29.980Z,34.90
2019-02-26T13:10:33.427Z,37.60
2019-02-26T13:15:38.585Z,40.70
2019-02-26T13:20:42.330Z,42.40
2019-02-26T13:25:46.139Z,42.40
2019-02-26T13:30:49.516Z,42.10
2019-02-26T13:36:00.413Z,43.40
2019-02-26T13:41:20.286Z,44.10
2019-02-26T13:46:02.978Z,44.50
2019-02-26T13:51:07.360Z,44.80
2019-02-26T13:56:10.683Z,45.40
2019-02-26T14:01:14.701Z,46.20
2019-02-26T14:06:18.099Z,46.90
2019-02-26T14:11:21.472Z,47.50
2019-02-26T14:16:26.123Z,47.90
2019-02-26T14:21:30.107Z,48.50
2019-02-26T14:26:34.340Z,48.90
2019-02-26T14:31:37.690Z,49.30
2019-02-26T14:36:41.618Z,49.80
2019-02-26T14:41:45.229Z,50.30
2019-02-26T14:46:48.676Z,50.50
2019-02-26T14:51:53.471Z,50.80
2019-02-26T14:56:58.982Z,51.10
2019-02-26T15:02:03.254Z,51.30
2019-02-26T15:07:06.650Z,51.80
2019-02-26T15:12:11.771Z,52.20
2019-02-26T15:17:15.176Z,52.10
2019-02-26T15:22:20.721Z,52.10
2019-02-26T15:27:24.039Z,50.90
2019-02-26T15:32:27.364Z,51.10
2019-02-26T15:37:32.462Z,51.20
2019-02-26T15:42:36.345Z,51.30
2019-02-26T15:47:39.726Z,51.40
2019-02-26T15:52:43.120Z,51.80
2019-02-26T15:57:46.503Z,52.20
2019-02-26T16:02:51.058Z,52.70
2019-02-26T16:07:54.368Z,53.10
2019-02-26T16:12:59.626Z,53.40
2019-02-26T16:18:03.099Z,54.00
2019-02-26T16:23:07.453Z,54.40
2019-02-26T16:28:10.783Z,54.70
2019-02-26T16:33:24.270Z,55.00
2019-02-26T16:38:28.073Z,55.30
2019-02-26T16:43:31.453Z,55.70
2019-02-26T16:48:34.787Z,56.10
2019-02-26T16:53:42.293Z,56.40
2019-02-26T16:58:46.549Z,56.50
2019-02-26T17:03:49.959Z,56.80
2019-02-26T17:08:53.385Z,57.10
2019-02-26T17:13:57.037Z,57.40
2019-02-26T17:19:00.434Z,57.70
2019-02-26T17:24:12.213Z,57.80
2019-02-26T17:29:16.889Z,58.30
2019-02-26T17:34:23.454Z,58.60
2019-02-26T17:44:39.095Z,59.30
2019-02-26T17:49:44.149Z,59.60
2019-02-26T17:54:49.745Z,59.80
2019-02-26T17:59:58.810Z,60.00
2019-02-26T18:05:02.468Z,60.10
2019-02-26T18:10:12.539Z,60.20
2019-02-26T18:15:16.551Z,60.90
2019-02-26T18:20:20.432Z,60.70
2019-02-26T18:25:24.801Z,61.10
2019-02-26T18:30:43.744Z,61.20
2019-02-26T18:35:49.425Z,61.60
2019-02-26T18:40:52.742Z,61.80
2019-02-26T18:45:56.150Z,62.10
2019-02-26T18:51:02.472Z,62.20
2019-02-26T18:56:07.980Z,62.50
2019-02-26T19:01:11.362Z,62.70
2019-02-26T19:06:24.653Z,62.80
2019-02-26T19:11:31.713Z,63.50
2019-02-26T19:16:35.121Z,63.70
2019-02-26T19:21:38.541Z,63.80
2019-02-26T19:26:46.666Z,64.30
2019-02-26T19:31:50.576Z,64.30
2019-02-26T19:36:56.687Z,64.80
2019-02-26T19:42:01.112Z,65.20
2019-02-26T19:47:09.499Z,65.50
2019-02-26T19:57:39.278Z,66.20
2019-02-26T20:02:43.778Z,66.50
2019-02-26T20:07:47.282Z,66.90
2019-02-26T20:12:51.091Z,67.20
2019-02-26T20:17:56.175Z,67.70
2019-02-26T20:22:59.568Z,67.90
2019-02-26T20:28:05.472Z,68.50
2019-02-26T20:33:08.285Z,68.90
2019-02-26T20:38:14.274Z,69.50
2019-02-26T20:43:18.298Z,69.80
2019-02-26T20:48:21.888Z,70.40
2019-02-26T20:53:25.226Z,71.10
2019-02-26T20:58:30.774Z,71.00
2019-02-26T21:03:35.726Z,71.10
2019-02-26T21:08:39.073Z,71.70
2019-02-26T21:13:42.457Z,71.60
2019-02-26T21:18:47.326Z,72.10
2019-02-26T21:23:52.694Z,72.20
2019-02-26T21:28:56.450Z,72.20
2019-02-26T21:34:03.697Z,72.50
2019-02-26T21:39:06.380Z,72.60
2019-02-26T21:44:09.705Z,72.90
2019-02-26T21:49:13.237Z,73.20
2019-02-26T21:54:16.658Z,73.40
2019-02-26T21:59:20.801Z,73.70
2019-02-26T22:04:24.974Z,73.80
2019-02-26T22:09:30.617Z,74.00
2019-02-26T22:14:36.788Z,74.20
2019-02-26T22:19:41.388Z,74.50
2019-02-26T22:24:47.214Z,74.70
2019-02-26T22:29:50.561Z,74.90
2019-02-26T22:34:54.562Z,75.30
2019-02-26T22:39:57.970Z,75.60
2019-02-26T22:45:01.866Z,75.50
2019-02-26T22:50:07.929Z,75.90
2019-02-26T22:55:16.040Z,75.90
2019-02-26T23:00:55.802Z,76.00
2019-02-26T23:05:59.642Z,76.40
2019-02-26T23:11:07.031Z,76.80
2019-02-26T23:16:34.901Z,76.80
2019-02-26T23:21:38.676Z,76.80
2019-02-26T23:26:42.614Z,77.20
2019-02-26T23:31:47.897Z,77.50
2019-02-26T23:36:51.820Z,77.60
2019-02-26T23:41:56.771Z,78.50
2019-02-26T23:47:02.802Z,78.10
2019-02-26T23:52:07.805Z,78.50
2019-02-26T23:57:14.471Z,78.40
